sensor_id;sensor_type;location;lat;lon;timestamp;P1;durP1;ratioP1;P2;durP2;ratioP2
41739;SDS011;27422;52.444;13.300;2022-11-20T00:00:48;13.75;;;6.38;;
41739;SDS011;27422;52.444;13.300;2022-11-20T00:03:14;13.48;;;6.22;;
41739;SDS011;27422;52.444;13.300;2022-11-20T00:05:39;12.75;;;6.40;;
41739;SDS011;27422;52.444;13.300;2022-11-20T00:08:05;13.52;;;6.43;;
41739;SDS011;27422;52.444;13.300;2022-11-20T00:10:30;13.88;;;6.80;;
41739;SDS011;27422;52.444;13.300;2022-11-20T00:12:59;11.27;;;6.18;;
41739;SDS011;27422;52.444;13.300;2022-11-20T00:15:24;12.77;;;6.88;;
41739;SDS011;27422;52.444;13.300;2022-11-20T00:17:50;9.95;;;5.72;;
41739;SDS011;27422;52.444;13.300;2022-11-20T00:20:15;12.63;;;6.60;;
41739;SDS011;27422;52.444;13.300;2022-11-20T00:22:41;13.07;;;7.35;;
41739;SDS011;27422;52.444;13.300;2022-11-20T00:25:06;12.52;;;6.43;;
41739;SDS011;27422;52.444;13.300;2022-11-20T00:27:32;13.70;;;6.65;;
41739;SDS011;27422;52.444;13.300;2022-11-20T00:29:57;12.13;;;6.43;;
41739;SDS011;27422;52.444;13.300;2022-11-20T00:32:23;10.80;;;5.30;;
41739;SDS011;27422;52.444;13.300;2022-11-20T00:34:48;11.75;;;5.95;;
41739;SDS011;27422;52.444;13.300;2022-11-20T00:37:13;12.43;;;6.65;;
41739;SDS011;27422;52.444;13.300;2022-11-20T00:39:39;12.82;;;6.38;;
41739;SDS011;27422;52.444;13.300;2022-11-20T00:42:07;13.80;;;6.68;;
41739;SDS011;27422;52.444;13.300;2022-11-20T00:44:33;13.65;;;6.47;;
41739;SDS011;27422;52.444;13.300;2022-11-20T00:46:58;13.18;;;6.45;;
41739;SDS011;27422;52.444;13.300;2022-11-20T00:49:29;12.35;;;6.30;;
41739;SDS011;27422;52.444;13.300;2022-11-20T00:51:54;13.48;;;7.05;;
41739;SDS011;27422;52.444;13.300;2022-11-20T00:54:19;13.82;;;6.65;;
41739;SDS011;27422;52.444;13.300;2022-11-20T00:56:45;11.93;;;6.30;;
41739;SDS011;27422;52.444;13.300;2022-11-20T00:59:10;13.00;;;6.97;;
41739;SDS011;27422;52.444;13.300;2022-11-20T01:01:36;14.65;;;6.90;;
41739;SDS011;27422;52.444;13.300;2022-11-20T01:04:02;15.05;;;7.57;;
41739;SDS011;27422;52.444;13.300;2022-11-20T01:06:29;14.52;;;6.55;;
41739;SDS011;27422;52.444;13.300;2022-11-20T01:08:56;13.43;;;6.78;;
41739;SDS011;27422;52.444;13.300;2022-11-20T01:13:53;11.15;;;5.85;;
41739;SDS011;27422;52.444;13.300;2022-11-20T01:18:47;13.90;;;7.07;;
41739;SDS011;27422;52.444;13.300;2022-11-20T01:21:18;14.20;;;6.88;;
41739;SDS011;27422;52.444;13.300;2022-11-20T01:23:45;15.27;;;6.95;;
41739;SDS011;27422;52.444;13.300;2022-11-20T01:26:12;13.57;;;6.80;;
41739;SDS011;27422;52.444;13.300;2022-11-20T01:28:42;12.98;;;6.90;;
41739;SDS011;27422;52.444;13.300;2022-11-20T01:31:15;16.48;;;7.07;;
41739;SDS011;27422;52.444;13.300;2022-11-20T01:33:43;13.05;;;6.28;;
41739;SDS011;27422;52.444;13.300;2022-11-20T01:36:09;16.65;;;7.47;;
41739;SDS011;27422;52.444;13.300;2022-11-20T01:38:35;14.80;;;6.97;;
41739;SDS011;27422;52.444;13.300;2022-11-20T01:41:01;14.07;;;7.43;;
41739;SDS011;27422;52.444;13.300;2022-11-20T01:43:27;13.38;;;6.38;;
41739;SDS011;27422;52.444;13.300;2022-11-20T01:48:19;12.70;;;6.35;;
41739;SDS011;27422;52.444;13.300;2022-11-20T01:50:45;14.82;;;7.38;;
41739;SDS011;27422;52.444;13.300;2022-11-20T01:53:12;12.07;;;6.40;;
41739;SDS011;27422;52.444;13.300;2022-11-20T01:55:44;13.98;;;7.35;;
41739;SDS011;27422;52.444;13.300;2022-11-20T01:58:12;13.48;;;7.07;;
41739;SDS011;27422;52.444;13.300;2022-11-20T02:00:38;11.63;;;6.43;;
41739;SDS011;27422;52.444;13.300;2022-11-20T02:03:12;15.30;;;6.95;;
41739;SDS011;27422;52.444;13.300;2022-11-20T02:08:29;14.38;;;6.93;;
41739;SDS011;27422;52.444;13.300;2022-11-20T02:10:55;11.82;;;6.07;;
41739;SDS011;27422;52.444;13.300;2022-11-20T02:13:23;14.48;;;7.38;;
41739;SDS011;27422;52.444;13.300;2022-11-20T02:16:19;13.75;;;7.32;;
41739;SDS011;27422;52.444;13.300;2022-11-20T02:18:49;13.93;;;6.72;;
41739;SDS011;27422;52.444;13.300;2022-11-20T02:21:24;14.93;;;7.20;;
41739;SDS011;27422;52.444;13.300;2022-11-20T02:26:40;15.10;;;7.18;;
41739;SDS011;27422;52.444;13.300;2022-11-20T02:29:09;14.15;;;6.60;;
41739;SDS011;27422;52.444;13.300;2022-11-20T02:31:36;13.25;;;6.55;;
41739;SDS011;27422;52.444;13.300;2022-11-20T02:34:03;13.73;;;6.70;;
41739;SDS011;27422;52.444;13.300;2022-11-20T02:36:28;15.50;;;6.53;;
41739;SDS011;27422;52.444;13.300;2022-11-20T02:38:57;12.73;;;7.03;;
41739;SDS011;27422;52.444;13.300;2022-11-20T02:41:29;13.23;;;7.07;;
41739;SDS011;27422;52.444;13.300;2022-11-20T02:43:56;14.43;;;7.00;;
41739;SDS011;27422;52.444;13.300;2022-11-20T02:46:21;15.15;;;7.53;;
41739;SDS011;27422;52.444;13.300;2022-11-20T02:48:47;15.40;;;7.10;;
41739;SDS011;27422;52.444;13.300;2022-11-20T02:51:12;12.15;;;7.07;;
41739;SDS011;27422;52.444;13.300;2022-11-20T02:53:37;15.05;;;7.18;;
41739;SDS011;27422;52.444;13.300;2022-11-20T02:56:03;13.95;;;6.93;;
41739;SDS011;27422;52.444;13.300;2022-11-20T02:58:31;15.85;;;7.43;;
41739;SDS011;27422;52.444;13.300;2022-11-20T03:00:57;14.43;;;7.45;;
41739;SDS011;27422;52.444;13.300;2022-11-20T03:03:22;13.68;;;6.70;;
41739;SDS011;27422;52.444;13.300;2022-11-20T03:05:48;14.07;;;7.15;;
41739;SDS011;27422;52.444;13.300;2022-11-20T03:08:13;13.13;;;6.80;;
41739;SDS011;27422;52.444;13.300;2022-11-20T03:10:38;16.75;;;7.47;;
41739;SDS011;27422;52.444;13.300;2022-11-20T03:13:04;15.48;;;7.20;;
41739;SDS011;27422;52.444;13.300;2022-11-20T03:18:44;13.27;;;6.68;;
41739;SDS011;27422;52.444;13.300;2022-11-20T03:21:10;13.75;;;7.10;;
41739;SDS011;27422;52.444;13.300;2022-11-20T03:23:37;13.40;;;7.15;;
41739;SDS011;27422;52.444;13.300;2022-11-20T03:26:07;12.57;;;7.25;;
41739;SDS011;27422;52.444;13.300;2022-11-20T03:28:45;14.68;;;7.53;;
41739;SDS011;27422;52.444;13.300;2022-11-20T03:31:12;12.50;;;7.18;;
41739;SDS011;27422;52.444;13.300;2022-11-20T03:33:39;14.05;;;7.72;;
41739;SDS011;27422;52.444;13.300;2022-11-20T03:36:06;14.43;;;7.45;;
41739;SDS011;27422;52.444;13.300;2022-11-20T03:41:02;13.88;;;6.57;;
41739;SDS011;27422;52.444;13.300;2022-11-20T03:43:29;14.20;;;7.30;;
41739;SDS011;27422;52.444;13.300;2022-11-20T03:45:55;14.73;;;7.47;;
41739;SDS011;27422;52.444;13.300;2022-11-20T03:48:21;13.68;;;7.15;;
41739;SDS011;27422;52.444;13.300;2022-11-20T03:50:46;15.85;;;7.35;;
41739;SDS011;27422;52.444;13.300;2022-11-20T03:53:13;16.58;;;7.32;;
41739;SDS011;27422;52.444;13.300;2022-11-20T03:55:38;13.98;;;7.13;;
41739;SDS011;27422;52.444;13.300;2022-11-20T03:58:04;12.77;;;6.93;;
41739;SDS011;27422;52.444;13.300;2022-11-20T04:00:29;14.68;;;7.05;;
41739;SDS011;27422;52.444;13.300;2022-11-20T04:02:57;14.23;;;7.22;;
41739;SDS011;27422;52.444;13.300;2022-11-20T04:05:23;13.50;;;7.10;;
41739;SDS011;27422;52.444;13.300;2022-11-20T04:07:49;14.68;;;7.45;;
41739;SDS011;27422;52.444;13.300;2022-11-20T04:10:14;16.25;;;7.00;;
41739;SDS011;27422;52.444;13.300;2022-11-20T04:12:40;16.10;;;7.63;;
41739;SDS011;27422;52.444;13.300;2022-11-20T04:15:05;14.27;;;7.63;;
41739;SDS011;27422;52.444;13.300;2022-11-20T04:17:31;14.02;;;7.00;;
41739;SDS011;27422;52.444;13.300;2022-11-20T04:19:56;14.75;;;7.10;;
41739;SDS011;27422;52.444;13.300;2022-11-20T04:22:22;13.50;;;7.13;;
41739;SDS011;27422;52.444;13.300;2022-11-20T04:24:47;13.20;;;7.03;;
41739;SDS011;27422;52.444;13.300;2022-11-20T04:27:13;15.77;;;7.55;;
41739;SDS011;27422;52.444;13.300;2022-11-20T04:29:38;13.55;;;7.13;;
41739;SDS011;27422;52.444;13.300;2022-11-20T04:32:03;13.70;;;7.60;;
41739;SDS011;27422;52.444;13.300;2022-11-20T04:34:29;14.80;;;7.25;;
41739;SDS011;27422;52.444;13.300;2022-11-20T04:36:57;15.30;;;7.93;;
41739;SDS011;27422;52.444;13.300;2022-11-20T04:39:25;14.65;;;7.35;;
41739;SDS011;27422;52.444;13.300;2022-11-20T04:41:50;14.75;;;7.28;;
41739;SDS011;27422;52.444;13.300;2022-11-20T04:44:38;13.10;;;7.53;;
41739;SDS011;27422;52.444;13.300;2022-11-20T04:47:04;16.48;;;8.18;;
41739;SDS011;27422;52.444;13.300;2022-11-20T04:49:29;14.95;;;7.50;;
41739;SDS011;27422;52.444;13.300;2022-11-20T04:51:56;13.38;;;6.97;;
41739;SDS011;27422;52.444;13.300;2022-11-20T04:54:22;14.52;;;7.32;;
41739;SDS011;27422;52.444;13.300;2022-11-20T04:56:47;14.57;;;7.10;;
41739;SDS011;27422;52.444;13.300;2022-11-20T04:59:13;14.32;;;7.35;;
41739;SDS011;27422;52.444;13.300;2022-11-20T05:01:38;14.85;;;7.15;;
41739;SDS011;27422;52.444;13.300;2022-11-20T05:04:04;14.60;;;7.60;;
41739;SDS011;27422;52.444;13.300;2022-11-20T05:06:30;15.68;;;7.55;;
41739;SDS011;27422;52.444;13.300;2022-11-20T05:08:59;17.13;;;8.77;;
41739;SDS011;27422;52.444;13.300;2022-11-20T05:11:24;16.23;;;8.10;;
41739;SDS011;27422;52.444;13.300;2022-11-20T05:13:50;16.75;;;8.52;;
41739;SDS011;27422;52.444;13.300;2022-11-20T05:16:20;15.02;;;7.72;;
41739;SDS011;27422;52.444;13.300;2022-11-20T05:18:47;13.68;;;7.68;;
41739;SDS011;27422;52.444;13.300;2022-11-20T05:21:12;16.55;;;7.70;;
41739;SDS011;27422;52.444;13.300;2022-11-20T05:23:38;12.27;;;7.05;;
41739;SDS011;27422;52.444;13.300;2022-11-20T05:26:04;13.77;;;7.72;;
41739;SDS011;27422;52.444;13.300;2022-11-20T05:28:31;15.20;;;7.70;;
41739;SDS011;27422;52.444;13.300;2022-11-20T05:31:03;15.00;;;6.95;;
41739;SDS011;27422;52.444;13.300;2022-11-20T05:33:36;15.32;;;7.60;;
41739;SDS011;27422;52.444;13.300;2022-11-20T05:36:05;14.48;;;7.35;;
41739;SDS011;27422;52.444;13.300;2022-11-20T05:38:30;16.90;;;8.57;;
41739;SDS011;27422;52.444;13.300;2022-11-20T05:41:06;15.43;;;8.07;;
41739;SDS011;27422;52.444;13.300;2022-11-20T05:43:37;15.10;;;7.97;;
41739;SDS011;27422;52.444;13.300;2022-11-20T05:46:04;16.08;;;8.07;;
41739;SDS011;27422;52.444;13.300;2022-11-20T05:48:30;18.48;;;9.20;;
41739;SDS011;27422;52.444;13.300;2022-11-20T05:50:57;15.82;;;7.85;;
41739;SDS011;27422;52.444;13.300;2022-11-20T05:53:25;14.95;;;8.32;;
41739;SDS011;27422;52.444;13.300;2022-11-20T05:56:00;14.95;;;7.95;;
41739;SDS011;27422;52.444;13.300;2022-11-20T05:58:27;17.02;;;8.15;;
41739;SDS011;27422;52.444;13.300;2022-11-20T06:00:53;14.73;;;7.45;;
41739;SDS011;27422;52.444;13.300;2022-11-20T06:03:19;15.93;;;8.40;;
41739;SDS011;27422;52.444;13.300;2022-11-20T06:05:44;16.38;;;8.40;;
41739;SDS011;27422;52.444;13.300;2022-11-20T06:08:10;17.02;;;8.23;;
41739;SDS011;27422;52.444;13.300;2022-11-20T06:10:35;16.75;;;8.55;;
41739;SDS011;27422;52.444;13.300;2022-11-20T06:13:01;15.85;;;8.10;;
41739;SDS011;27422;52.444;13.300;2022-11-20T06:15:26;18.25;;;8.00;;
41739;SDS011;27422;52.444;13.300;2022-11-20T06:17:52;19.15;;;8.70;;
41739;SDS011;27422;52.444;13.300;2022-11-20T06:20:18;14.75;;;8.25;;
41739;SDS011;27422;52.444;13.300;2022-11-20T06:22:44;14.45;;;7.95;;
41739;SDS011;27422;52.444;13.300;2022-11-20T06:25:09;15.23;;;8.27;;
41739;SDS011;27422;52.444;13.300;2022-11-20T06:27:35;14.73;;;7.80;;
41739;SDS011;27422;52.444;13.300;2022-11-20T06:30:00;16.40;;;8.45;;
41739;SDS011;27422;52.444;13.300;2022-11-20T06:32:26;16.42;;;8.60;;
41739;SDS011;27422;52.444;13.300;2022-11-20T06:34:51;16.55;;;8.50;;
41739;SDS011;27422;52.444;13.300;2022-11-20T06:37:16;15.43;;;7.95;;
41739;SDS011;27422;52.444;13.300;2022-11-20T06:39:42;16.60;;;7.97;;
41739;SDS011;27422;52.444;13.300;2022-11-20T06:42:07;13.88;;;7.40;;
41739;SDS011;27422;52.444;13.300;2022-11-20T06:44:32;22.05;;;9.23;;
41739;SDS011;27422;52.444;13.300;2022-11-20T06:46:58;15.60;;;8.05;;
41739;SDS011;27422;52.444;13.300;2022-11-20T06:49:23;17.92;;;7.80;;
41739;SDS011;27422;52.444;13.300;2022-11-20T06:51:50;17.27;;;9.00;;
41739;SDS011;27422;52.444;13.300;2022-11-20T06:54:15;16.27;;;8.35;;
41739;SDS011;27422;52.444;13.300;2022-11-20T06:56:40;17.23;;;8.40;;
41739;SDS011;27422;52.444;13.300;2022-11-20T06:59:06;19.10;;;9.02;;
41739;SDS011;27422;52.444;13.300;2022-11-20T07:01:32;16.92;;;8.45;;
41739;SDS011;27422;52.444;13.300;2022-11-20T07:03:58;15.70;;;8.35;;
41739;SDS011;27422;52.444;13.300;2022-11-20T07:06:23;17.45;;;8.73;;
41739;SDS011;27422;52.444;13.300;2022-11-20T07:08:50;17.05;;;8.57;;
41739;SDS011;27422;52.444;13.300;2022-11-20T07:11:16;18.20;;;8.32;;
41739;SDS011;27422;52.444;13.300;2022-11-20T07:13:42;14.88;;;7.75;;
41739;SDS011;27422;52.444;13.300;2022-11-20T07:16:07;15.93;;;7.88;;
41739;SDS011;27422;52.444;13.300;2022-11-20T07:18:33;14.98;;;8.20;;
41739;SDS011;27422;52.444;13.300;2022-11-20T07:21:06;18.33;;;8.82;;
41739;SDS011;27422;52.444;13.300;2022-11-20T07:23:33;16.40;;;8.55;;
41739;SDS011;27422;52.444;13.300;2022-11-20T07:26:02;16.30;;;8.07;;
41739;SDS011;27422;52.444;13.300;2022-11-20T07:28:31;16.20;;;8.23;;
41739;SDS011;27422;52.444;13.300;2022-11-20T07:30:57;16.50;;;8.02;;
41739;SDS011;27422;52.444;13.300;2022-11-20T07:33:22;17.42;;;8.35;;
41739;SDS011;27422;52.444;13.300;2022-11-20T07:35:48;15.95;;;8.20;;
41739;SDS011;27422;52.444;13.300;2022-11-20T07:38:13;15.65;;;7.72;;
41739;SDS011;27422;52.444;13.300;2022-11-20T07:40:39;15.93;;;8.07;;
41739;SDS011;27422;52.444;13.300;2022-11-20T07:43:04;13.85;;;7.30;;
41739;SDS011;27422;52.444;13.300;2022-11-20T07:45:34;14.32;;;7.00;;
41739;SDS011;27422;52.444;13.300;2022-11-20T07:47:59;17.52;;;7.68;;
41739;SDS011;27422;52.444;13.300;2022-11-20T07:50:25;15.25;;;8.15;;
41739;SDS011;27422;52.444;13.300;2022-11-20T07:52:50;16.27;;;7.82;;
41739;SDS011;27422;52.444;13.300;2022-11-20T07:55:17;16.60;;;8.07;;
41739;SDS011;27422;52.444;13.300;2022-11-20T07:57:42;15.65;;;7.78;;
41739;SDS011;27422;52.444;13.300;2022-11-20T08:00:09;17.83;;;8.57;;
41739;SDS011;27422;52.444;13.300;2022-11-20T08:02:39;14.57;;;8.05;;
41739;SDS011;27422;52.444;13.300;2022-11-20T08:05:05;15.55;;;7.95;;
41739;SDS011;27422;52.444;13.300;2022-11-20T08:07:38;19.30;;;8.73;;
41739;SDS011;27422;52.444;13.300;2022-11-20T08:10:08;14.32;;;8.10;;
41739;SDS011;27422;52.444;13.300;2022-11-20T08:12:34;17.98;;;9.48;;
41739;SDS011;27422;52.444;13.300;2022-11-20T08:15:18;15.70;;;8.00;;
41739;SDS011;27422;52.444;13.300;2022-11-20T08:17:44;18.35;;;9.13;;
41739;SDS011;27422;52.444;13.300;2022-11-20T08:20:10;16.67;;;8.75;;
41739;SDS011;27422;52.444;13.300;2022-11-20T08:22:36;15.93;;;8.40;;
41739;SDS011;27422;52.444;13.300;2022-11-20T08:25:01;16.77;;;8.50;;
41739;SDS011;27422;52.444;13.300;2022-11-20T08:27:27;15.80;;;8.25;;
41739;SDS011;27422;52.444;13.300;2022-11-20T08:29:52;17.08;;;8.80;;
41739;SDS011;27422;52.444;13.300;2022-11-20T08:32:18;16.52;;;8.27;;
41739;SDS011;27422;52.444;13.300;2022-11-20T08:34:46;16.45;;;8.50;;
41739;SDS011;27422;52.444;13.300;2022-11-20T08:37:15;15.50;;;7.43;;
41739;SDS011;27422;52.444;13.300;2022-11-20T08:39:49;18.45;;;8.18;;
41739;SDS011;27422;52.444;13.300;2022-11-20T08:42:15;15.15;;;8.00;;
41739;SDS011;27422;52.444;13.300;2022-11-20T08:44:40;16.85;;;8.70;;
41739;SDS011;27422;52.444;13.300;2022-11-20T08:47:08;16.80;;;8.27;;
41739;SDS011;27422;52.444;13.300;2022-11-20T08:49:33;15.05;;;7.82;;
41739;SDS011;27422;52.444;13.300;2022-11-20T08:51:59;13.13;;;7.13;;
41739;SDS011;27422;52.444;13.300;2022-11-20T08:54:24;17.88;;;8.05;;
41739;SDS011;27422;52.444;13.300;2022-11-20T08:56:50;14.13;;;7.75;;
41739;SDS011;27422;52.444;13.300;2022-11-20T08:59:15;17.42;;;8.93;;
41739;SDS011;27422;52.444;13.300;2022-11-20T09:01:41;14.38;;;7.88;;
41739;SDS011;27422;52.444;13.300;2022-11-20T09:04:06;15.90;;;8.73;;
41739;SDS011;27422;52.444;13.300;2022-11-20T09:06:32;15.55;;;8.23;;
41739;SDS011;27422;52.444;13.300;2022-11-20T09:08:57;14.73;;;7.63;;
41739;SDS011;27422;52.444;13.300;2022-11-20T09:11:23;17.25;;;8.10;;
41739;SDS011;27422;52.444;13.300;2022-11-20T09:13:48;15.45;;;7.95;;
41739;SDS011;27422;52.444;13.300;2022-11-20T09:16:14;14.50;;;7.43;;
41739;SDS011;27422;52.444;13.300;2022-11-20T09:18:39;16.00;;;8.57;;
41739;SDS011;27422;52.444;13.300;2022-11-20T09:21:06;15.50;;;8.48;;
41739;SDS011;27422;52.444;13.300;2022-11-20T09:23:35;16.45;;;9.10;;
41739;SDS011;27422;52.444;13.300;2022-11-20T09:26:02;15.60;;;7.85;;
41739;SDS011;27422;52.444;13.300;2022-11-20T09:28:29;15.45;;;7.72;;
41739;SDS011;27422;52.444;13.300;2022-11-20T09:30:55;16.38;;;8.43;;
41739;SDS011;27422;52.444;13.300;2022-11-20T09:33:20;17.90;;;8.38;;
41739;SDS011;27422;52.444;13.300;2022-11-20T09:35:45;14.68;;;8.35;;
41739;SDS011;27422;52.444;13.300;2022-11-20T09:38:11;17.15;;;8.40;;
41739;SDS011;27422;52.444;13.300;2022-11-20T09:40:38;16.65;;;8.65;;
41739;SDS011;27422;52.444;13.300;2022-11-20T09:48:42;15.15;;;8.25;;
41739;SDS011;27422;52.444;13.300;2022-11-20T09:56:37;16.60;;;8.85;;
41739;SDS011;27422;52.444;13.300;2022-11-20T09:59:06;16.35;;;8.07;;
41739;SDS011;27422;52.444;13.300;2022-11-20T10:01:34;15.38;;;8.23;;
41739;SDS011;27422;52.444;13.300;2022-11-20T10:04:04;15.00;;;7.95;;
41739;SDS011;27422;52.444;13.300;2022-11-20T10:06:48;14.77;;;8.07;;
41739;SDS011;27422;52.444;13.300;2022-11-20T10:09:21;15.80;;;8.68;;
41739;SDS011;27422;52.444;13.300;2022-11-20T10:11:51;16.88;;;8.30;;
41739;SDS011;27422;52.444;13.300;2022-11-20T10:14:41;15.80;;;8.10;;
41739;SDS011;27422;52.444;13.300;2022-11-20T10:25:33;16.35;;;8.50;;
41739;SDS011;27422;52.444;13.300;2022-11-20T10:28:15;14.38;;;7.63;;
41739;SDS011;27422;52.444;13.300;2022-11-20T10:30:46;18.67;;;9.35;;
41739;SDS011;27422;52.444;13.300;2022-11-20T10:33:23;16.45;;;8.45;;
41739;SDS011;27422;52.444;13.300;2022-11-20T10:38:28;15.52;;;8.18;;
41739;SDS011;27422;52.444;13.300;2022-11-20T10:40:59;16.65;;;8.38;;
41739;SDS011;27422;52.444;13.300;2022-11-20T10:43:47;15.90;;;7.97;;
41739;SDS011;27422;52.444;13.300;2022-11-20T10:46:22;15.90;;;8.90;;
41739;SDS011;27422;52.444;13.300;2022-11-20T10:48:48;15.48;;;7.82;;
41739;SDS011;27422;52.444;13.300;2022-11-20T10:51:21;14.40;;;7.32;;
41739;SDS011;27422;52.444;13.300;2022-11-20T10:59:18;14.68;;;7.53;;
41739;SDS011;27422;52.444;13.300;2022-11-20T11:04:48;12.93;;;7.03;;
41739;SDS011;27422;52.444;13.300;2022-11-20T11:09:44;14.57;;;6.80;;
41739;SDS011;27422;52.444;13.300;2022-11-20T11:12:12;15.80;;;7.50;;
41739;SDS011;27422;52.444;13.300;2022-11-20T11:14:45;14.52;;;7.53;;
41739;SDS011;27422;52.444;13.300;2022-11-20T11:17:18;14.40;;;7.90;;
41739;SDS011;27422;52.444;13.300;2022-11-20T11:19:56;15.15;;;7.43;;
41739;SDS011;27422;52.444;13.300;2022-11-20T11:22:24;13.73;;;7.20;;
41739;SDS011;27422;52.444;13.300;2022-11-20T11:24:53;12.60;;;6.90;;
41739;SDS011;27422;52.444;13.300;2022-11-20T11:27:19;14.35;;;6.72;;
41739;SDS011;27422;52.444;13.300;2022-11-20T11:29:45;14.10;;;7.32;;
41739;SDS011;27422;52.444;13.300;2022-11-20T11:32:20;12.07;;;6.55;;
41739;SDS011;27422;52.444;13.300;2022-11-20T11:35:03;12.45;;;7.38;;
41739;SDS011;27422;52.444;13.300;2022-11-20T11:37:33;12.73;;;7.03;;
41739;SDS011;27422;52.444;13.300;2022-11-20T11:40:00;12.20;;;6.60;;
41739;SDS011;27422;52.444;13.300;2022-11-20T11:42:27;14.73;;;6.78;;
41739;SDS011;27422;52.444;13.300;2022-11-20T11:44:53;13.18;;;6.88;;
41739;SDS011;27422;52.444;13.300;2022-11-20T11:52:54;16.27;;;7.53;;
41739;SDS011;27422;52.444;13.300;2022-11-20T11:55:42;15.80;;;7.60;;
41739;SDS011;27422;52.444;13.300;2022-11-20T11:58:14;15.63;;;7.45;;
41739;SDS011;27422;52.444;13.300;2022-11-20T12:00:49;13.15;;;7.13;;
41739;SDS011;27422;52.444;13.300;2022-11-20T12:03:19;13.20;;;6.50;;
41739;SDS011;27422;52.444;13.300;2022-11-20T12:05:53;12.77;;;6.65;;
41739;SDS011;27422;52.444;13.300;2022-11-20T12:11:06;12.27;;;6.18;;
41739;SDS011;27422;52.444;13.300;2022-11-20T12:13:47;10.48;;;5.75;;
41739;SDS011;27422;52.444;13.300;2022-11-20T12:16:14;12.80;;;6.30;;
41739;SDS011;27422;52.444;13.300;2022-11-20T12:18:40;11.55;;;6.72;;
41739;SDS011;27422;52.444;13.300;2022-11-20T12:29:47;8.10;;;4.57;;
41739;SDS011;27422;52.444;13.300;2022-11-20T12:43:27;8.95;;;4.40;;
41739;SDS011;27422;52.444;13.300;2022-11-20T12:49:15;7.38;;;3.95;;
41739;SDS011;27422;52.444;13.300;2022-11-20T12:52:24;7.57;;;4.35;;
41739;SDS011;27422;52.444;13.300;2022-11-20T13:07:41;8.60;;;4.68;;
41739;SDS011;27422;52.444;13.300;2022-11-20T13:10:16;10.65;;;4.72;;
41739;SDS011;27422;52.444;13.300;2022-11-20T13:12:51;8.25;;;4.35;;
41739;SDS011;27422;52.444;13.300;2022-11-20T13:18:17;8.88;;;4.72;;
41739;SDS011;27422;52.444;13.300;2022-11-20T13:20:43;9.27;;;4.65;;
41739;SDS011;27422;52.444;13.300;2022-11-20T13:23:22;8.93;;;4.53;;
41739;SDS011;27422;52.444;13.300;2022-11-20T13:26:03;7.70;;;4.32;;
41739;SDS011;27422;52.444;13.300;2022-11-20T13:28:31;8.85;;;4.22;;
41739;SDS011;27422;52.444;13.300;2022-11-20T13:30:56;10.15;;;4.80;;
41739;SDS011;27422;52.444;13.300;2022-11-20T13:33:33;9.37;;;4.50;;
41739;SDS011;27422;52.444;13.300;2022-11-20T13:36:03;8.15;;;4.22;;
41739;SDS011;27422;52.444;13.300;2022-11-20T13:38:48;8.27;;;4.50;;
41739;SDS011;27422;52.444;13.300;2022-11-20T13:41:25;8.00;;;4.40;;
41739;SDS011;27422;52.444;13.300;2022-11-20T13:47:00;9.32;;;4.72;;
41739;SDS011;27422;52.444;13.300;2022-11-20T13:49:27;10.07;;;5.43;;
41739;SDS011;27422;52.444;13.300;2022-11-20T13:52:03;10.57;;;5.10;;
41739;SDS011;27422;52.444;13.300;2022-11-20T13:57:31;10.18;;;5.25;;
41739;SDS011;27422;52.444;13.300;2022-11-20T14:00:17;9.15;;;4.03;;
41739;SDS011;27422;52.444;13.300;2022-11-20T14:02:44;10.02;;;5.40;;
41739;SDS011;27422;52.444;13.300;2022-11-20T14:05:23;9.60;;;4.65;;
41739;SDS011;27422;52.444;13.300;2022-11-20T14:07:51;8.73;;;4.40;;
41739;SDS011;27422;52.444;13.300;2022-11-20T14:10:21;9.23;;;4.90;;
41739;SDS011;27422;52.444;13.300;2022-11-20T14:12:48;9.82;;;5.07;;
41739;SDS011;27422;52.444;13.300;2022-11-20T14:15:25;8.90;;;4.17;;
41739;SDS011;27422;52.444;13.300;2022-11-20T14:17:58;8.07;;;3.97;;
41739;SDS011;27422;52.444;13.300;2022-11-20T14:20:25;9.02;;;4.15;;
41739;SDS011;27422;52.444;13.300;2022-11-20T14:22:53;8.98;;;4.20;;
41739;SDS011;27422;52.444;13.300;2022-11-20T14:25:25;9.20;;;4.72;;
41739;SDS011;27422;52.444;13.300;2022-11-20T14:27:59;8.80;;;4.72;;
41739;SDS011;27422;52.444;13.300;2022-11-20T14:30:27;8.20;;;4.43;;
41739;SDS011;27422;52.444;13.300;2022-11-20T14:35:24;9.02;;;4.57;;
41739;SDS011;27422;52.444;13.300;2022-11-20T14:37:55;9.23;;;4.07;;
41739;SDS011;27422;52.444;13.300;2022-11-20T14:40:28;8.15;;;4.15;;
41739;SDS011;27422;52.444;13.300;2022-11-20T14:43:00;11.13;;;4.25;;
41739;SDS011;27422;52.444;13.300;2022-11-20T14:45:25;11.63;;;5.07;;
41739;SDS011;27422;52.444;13.300;2022-11-20T14:47:52;8.10;;;4.65;;
41739;SDS011;27422;52.444;13.300;2022-11-20T14:50:20;9.35;;;4.63;;
41739;SDS011;27422;52.444;13.300;2022-11-20T14:52:52;11.45;;;5.65;;
41739;SDS011;27422;52.444;13.300;2022-11-20T14:55:35;10.52;;;4.90;;
41739;SDS011;27422;52.444;13.300;2022-11-20T14:58:05;9.15;;;4.70;;
41739;SDS011;27422;52.444;13.300;2022-11-20T15:00:32;10.63;;;5.50;;
41739;SDS011;27422;52.444;13.300;2022-11-20T15:02:58;11.90;;;5.80;;
41739;SDS011;27422;52.444;13.300;2022-11-20T15:05:25;10.80;;;4.68;;
41739;SDS011;27422;52.444;13.300;2022-11-20T15:08:09;8.52;;;4.70;;
41739;SDS011;27422;52.444;13.300;2022-11-20T15:10:35;9.10;;;4.95;;
41739;SDS011;27422;52.444;13.300;2022-11-20T15:13:05;8.93;;;5.07;;
41739;SDS011;27422;52.444;13.300;2022-11-20T15:18:18;9.35;;;5.00;;
41739;SDS011;27422;52.444;13.300;2022-11-20T15:20:45;10.82;;;4.97;;
41739;SDS011;27422;52.444;13.300;2022-11-20T15:23:11;9.50;;;5.00;;
41739;SDS011;27422;52.444;13.300;2022-11-20T15:25:38;10.67;;;5.40;;
41739;SDS011;27422;52.444;13.300;2022-11-20T15:28:04;11.05;;;4.88;;
41739;SDS011;27422;52.444;13.300;2022-11-20T15:30:33;8.38;;;4.65;;
41739;SDS011;27422;52.444;13.300;2022-11-20T15:32:58;8.32;;;4.90;;
41739;SDS011;27422;52.444;13.300;2022-11-20T15:35:23;9.35;;;4.95;;
41739;SDS011;27422;52.444;13.300;2022-11-20T15:37:49;10.07;;;5.32;;
41739;SDS011;27422;52.444;13.300;2022-11-20T15:40:23;10.40;;;5.15;;
41739;SDS011;27422;52.444;13.300;2022-11-20T15:42:49;9.40;;;4.65;;
41739;SDS011;27422;52.444;13.300;2022-11-20T15:48:27;10.85;;;5.03;;
41739;SDS011;27422;52.444;13.300;2022-11-20T15:53:41;8.88;;;4.85;;
41739;SDS011;27422;52.444;13.300;2022-11-20T15:56:13;11.20;;;5.22;;
41739;SDS011;27422;52.444;13.300;2022-11-20T15:58:39;8.95;;;4.50;;
41739;SDS011;27422;52.444;13.300;2022-11-20T16:01:05;10.20;;;5.28;;
41739;SDS011;27422;52.444;13.300;2022-11-20T16:03:54;11.35;;;4.90;;
41739;SDS011;27422;52.444;13.300;2022-11-20T16:06:21;9.45;;;4.80;;
41739;SDS011;27422;52.444;13.300;2022-11-20T16:11:12;10.85;;;5.13;;
41739;SDS011;27422;52.444;13.300;2022-11-20T16:13:39;9.43;;;5.13;;
41739;SDS011;27422;52.444;13.300;2022-11-20T16:16:27;10.10;;;4.57;;
41739;SDS011;27422;52.444;13.300;2022-11-20T16:18:55;9.40;;;5.55;;
41739;SDS011;27422;52.444;13.300;2022-11-20T16:21:20;9.85;;;5.18;;
41739;SDS011;27422;52.444;13.300;2022-11-20T16:23:56;10.93;;;6.05;;
41739;SDS011;27422;52.444;13.300;2022-11-20T16:26:25;9.85;;;5.45;;
41739;SDS011;27422;52.444;13.300;2022-11-20T16:28:50;9.73;;;5.18;;